createdAt,value
2022-12-25T00:01:07.727Z,12.49
2022-12-25T00:04:11.644Z,12.69
2022-12-25T00:07:15.633Z,12.50
2022-12-25T00:10:19.554Z,12.66
2022-12-25T00:13:23.507Z,12.34
2022-12-25T00:16:27.531Z,12.48
2022-12-25T00:19:31.531Z,12.64
2022-12-25T00:22:35.732Z,12.32
2022-12-25T00:25:39.803Z,12.42
2022-12-25T00:28:43.550Z,12.38
2022-12-25T00:31:47.677Z,12.54
2022-12-25T00:34:51.860Z,12.52
2022-12-25T00:37:55.820Z,12.72
2022-12-25T00:40:59.738Z,12.52
2022-12-25T00:44:03.597Z,12.44
2022-12-25T00:47:07.514Z,12.18
2022-12-25T00:50:11.645Z,12.20
2022-12-25T00:53:15.773Z,11.87
2022-12-25T00:56:19.587Z,11.64
2022-12-25T00:59:23.619Z,11.51
2022-12-25T01:02:27.928Z,11.46
2022-12-25T01:05:31.798Z,11.56
2022-12-25T01:08:35.819Z,11.43
2022-12-25T01:11:39.648Z,11.67
2022-12-25T01:14:43.425Z,11.98
2022-12-25T01:17:47.549Z,12.42
2022-12-25T01:20:51.706Z,11.95
2022-12-25T01:23:55.649Z,12.37
2022-12-25T01:26:59.746Z,12.29
2022-12-25T01:30:03.977Z,12.17
2022-12-25T01:33:07.867Z,12.00
2022-12-25T01:36:11.738Z,12.39
2022-12-25T01:39:15.865Z,12.24
2022-12-25T01:42:19.825Z,12.47
2022-12-25T01:45:24.037Z,12.53
2022-12-25T01:48:28.101Z,12.61
2022-12-25T01:51:31.919Z,12.52
2022-12-25T01:54:35.944Z,12.34
2022-12-25T01:57:39.955Z,12.46
2022-12-25T02:00:44.057Z,12.27
2022-12-25T02:03:48.050Z,11.70
2022-12-25T02:06:52.011Z,11.27
2022-12-25T02:09:56.173Z,11.44
2022-12-25T02:13:00.390Z,11.07
2022-12-25T02:16:04.410Z,11.46
2022-12-25T02:19:08.239Z,11.50
2022-12-25T02:22:12.259Z,11.11
2022-12-25T02:25:16.311Z,11.75
2022-12-25T02:28:20.469Z,11.96
2022-12-25T02:31:24.351Z,11.66
2022-12-25T02:34:28.261Z,11.96
2022-12-25T02:37:32.283Z,11.88
2022-12-25T02:40:36.361Z,11.46
2022-12-25T02:43:40.304Z,11.42
2022-12-25T02:46:44.210Z,11.66
2022-12-25T02:49:48.018Z,11.89
2022-12-25T02:52:52.289Z,11.92
2022-12-25T02:55:56.457Z,11.33
2022-12-25T02:59:00.340Z,11.49
2022-12-25T03:02:04.462Z,11.68
2022-12-25T03:05:08.379Z,11.35
2022-12-25T03:08:12.351Z,11.06
2022-12-25T03:11:16.280Z,11.41
2022-12-25T03:14:20.423Z,11.40
2022-12-25T03:17:24.292Z,11.35
2022-12-25T03:20:28.385Z,11.66
2022-12-25T03:23:32.319Z,11.50
2022-12-25T03:26:36.130Z,11.15
2022-12-25T03:29:40.161Z,11.42
2022-12-25T03:32:44.131Z,11.62
2022-12-25T03:35:48.137Z,11.73
2022-12-25T03:38:52.142Z,11.54
2022-12-25T03:41:56.041Z,11.50
2022-12-25T03:45:00.010Z,11.29
2022-12-25T03:48:03.999Z,11.15
2022-12-25T03:51:08.049Z,11.43
2022-12-25T03:54:11.895Z,11.54
2022-12-25T03:57:15.748Z,11.51
2022-12-25T04:00:19.895Z,11.26
2022-12-25T04:03:24.125Z,11.37
2022-12-25T04:06:27.958Z,11.36
2022-12-25T04:09:31.925Z,11.39
2022-12-25T04:12:35.724Z,11.40
2022-12-25T04:15:39.812Z,11.20
2022-12-25T04:18:43.871Z,11.31
2022-12-25T04:21:47.671Z,11.17
2022-12-25T04:24:51.527Z,11.19
2022-12-25T04:27:55.977Z,11.31
2022-12-25T04:30:59.698Z,10.79
2022-12-25T04:34:03.569Z,10.85
2022-12-25T04:37:07.426Z,10.86
2022-12-25T04:40:11.321Z,10.91
2022-12-25T04:43:15.351Z,10.91
2022-12-25T04:46:19.319Z,11.00
2022-12-25T04:49:23.149Z,10.89
2022-12-25T04:52:27.101Z,11.12
2022-12-25T04:55:31.062Z,11.01
2022-12-25T04:58:35.086Z,11.06
2022-12-25T05:01:39.095Z,10.75
2022-12-25T05:04:42.933Z,10.80
2022-12-25T05:07:46.821Z,11.05
2022-12-25T05:10:50.688Z,10.85
2022-12-25T05:13:54.690Z,10.81
2022-12-25T05:16:58.398Z,11.04
2022-12-25T05:20:02.377Z,11.10
2022-12-25T05:23:06.293Z,10.70
2022-12-25T05:26:10.166Z,10.82
2022-12-25T05:29:14.144Z,10.71
2022-12-25T05:32:18.036Z,10.69
2022-12-25T05:35:22.068Z,10.54
2022-12-25T05:38:25.906Z,10.33
2022-12-25T05:41:34.195Z,10.46
2022-12-25T05:44:38.940Z,10.14
2022-12-25T05:47:42.862Z,9.78
2022-12-25T05:50:46.782Z,10.33
2022-12-25T05:53:50.871Z,10.17
2022-12-25T05:56:55.085Z,9.84
2022-12-25T05:59:58.825Z,9.93
2022-12-25T06:03:02.777Z,10.01
2022-12-25T06:06:06.664Z,10.08
2022-12-25T06:09:10.874Z,10.43
2022-12-25T06:12:15.072Z,10.45
2022-12-25T06:15:20.319Z,10.37
2022-12-25T06:18:24.391Z,10.34
2022-12-25T06:21:28.410Z,10.50
2022-12-25T06:24:32.519Z,10.45
2022-12-25T06:27:36.517Z,10.52
2022-12-25T06:30:40.260Z,10.66
2022-12-25T06:33:44.274Z,10.65
2022-12-25T06:36:48.363Z,10.69
2022-12-25T06:39:52.182Z,10.79
2022-12-25T06:42:56.260Z,10.76
2022-12-25T06:46:00.304Z,10.90
2022-12-25T06:49:04.734Z,10.94
2022-12-25T06:52:09.044Z,10.99
2022-12-25T06:55:13.716Z,11.04
2022-12-25T06:58:17.406Z,11.09
2022-12-25T07:01:21.400Z,11.10
2022-12-25T07:04:25.151Z,10.77
2022-12-25T07:07:29.092Z,10.73
2022-12-25T07:10:33.246Z,11.04
2022-12-25T07:13:37.306Z,11.14
2022-12-25T07:16:41.092Z,11.00
2022-12-25T07:19:45.622Z,10.94
2022-12-25T07:22:49.422Z,11.21
2022-12-25T07:25:53.453Z,11.10
2022-12-25T07:28:57.400Z,10.82
2022-12-25T07:32:01.554Z,10.75
2022-12-25T07:35:05.522Z,10.84
2022-12-25T07:38:09.557Z,11.22
2022-12-25T07:41:13.480Z,11.63
2022-12-25T07:44:17.528Z,11.63
2022-12-25T07:47:21.953Z,11.37
2022-12-25T07:50:25.754Z,11.28
2022-12-25T07:53:29.744Z,11.47
2022-12-25T07:56:33.769Z,11.71
2022-12-25T07:59:37.799Z,11.80
2022-12-25T08:02:42.125Z,11.94
2022-12-25T08:05:46.090Z,12.03
2022-12-25T08:08:50.035Z,12.12
2022-12-25T08:11:53.950Z,11.91
2022-12-25T08:14:58.060Z,12.07
2022-12-25T08:18:01.859Z,12.14
2022-12-25T08:21:05.918Z,12.19
2022-12-25T08:24:09.912Z,12.26
2022-12-25T08:27:14.125Z,12.11
2022-12-25T08:30:18.223Z,12.20
2022-12-25T08:33:22.236Z,12.17
2022-12-25T08:36:26.083Z,12.20
2022-12-25T08:39:30.026Z,12.33
2022-12-25T08:42:33.982Z,12.24
2022-12-25T08:45:37.881Z,12.41
2022-12-25T08:48:41.739Z,12.29
2022-12-25T08:51:45.900Z,12.38
2022-12-25T08:54:50.138Z,12.53
2022-12-25T08:57:54.328Z,12.51
2022-12-25T09:00:58.477Z,12.62
2022-12-25T09:04:02.337Z,12.40
2022-12-25T09:07:06.475Z,12.61
2022-12-25T09:10:10.667Z,12.57
2022-12-25T09:13:14.681Z,12.75
2022-12-25T09:16:18.722Z,12.90
2022-12-25T09:19:22.552Z,12.83
2022-12-25T09:22:26.643Z,13.02
2022-12-25T09:25:30.646Z,13.09
2022-12-25T09:28:34.738Z,13.08
2022-12-25T09:31:40.161Z,12.96
2022-12-25T09:34:44.434Z,12.68
2022-12-25T09:37:48.220Z,12.68
2022-12-25T09:40:52.217Z,12.87
2022-12-25T09:43:56.091Z,13.00
2022-12-25T09:47:00.001Z,13.04
2022-12-25T09:50:04.018Z,13.00
2022-12-25T09:53:08.093Z,13.07
2022-12-25T09:56:12.241Z,13.31
2022-12-25T09:59:16.279Z,13.23
2022-12-25T10:02:20.150Z,13.33
2022-12-25T10:05:24.448Z,13.17
2022-12-25T10:08:28.678Z,13.11
2022-12-25T10:11:32.840Z,13.18
2022-12-25T10:14:36.689Z,13.10
2022-12-25T10:17:41.077Z,13.30
2022-12-25T10:20:45.315Z,13.31
2022-12-25T10:23:49.558Z,13.29
2022-12-25T10:26:53.407Z,13.16
2022-12-25T10:29:57.383Z,13.14
2022-12-25T10:33:01.485Z,13.31
2022-12-25T10:36:05.337Z,13.24
2022-12-25T10:39:09.344Z,13.05
2022-12-25T10:42:13.274Z,13.12
2022-12-25T10:45:17.160Z,12.82
2022-12-25T10:48:21.405Z,12.87
2022-12-25T10:51:25.401Z,13.31
2022-12-25T10:54:29.364Z,13.42
2022-12-25T10:57:33.435Z,13.52
2022-12-25T11:00:37.487Z,13.48
2022-12-25T11:03:41.632Z,13.02
2022-12-25T11:06:45.478Z,12.82
2022-12-25T11:09:49.574Z,13.02
2022-12-25T11:12:53.429Z,13.42
2022-12-25T11:15:57.414Z,13.49
2022-12-25T11:19:01.356Z,13.53
2022-12-25T11:22:05.434Z,12.96
2022-12-25T11:25:09.253Z,12.85
2022-12-25T11:28:13.504Z,13.34
2022-12-25T11:31:17.469Z,13.59
2022-12-25T11:34:21.593Z,13.54
2022-12-25T11:37:25.661Z,13.52
2022-12-25T11:40:29.617Z,13.35
2022-12-25T11:43:33.896Z,13.56
2022-12-25T11:46:38.125Z,13.50
2022-12-25T11:49:45.851Z,13.04
2022-12-25T11:52:53.893Z,13.04
2022-12-25T11:56:00.339Z,12.41
2022-12-25T11:59:04.565Z,13.04
2022-12-25T12:02:08.529Z,13.30
2022-12-25T12:05:12.658Z,13.54
2022-12-25T12:08:16.760Z,13.48
2022-12-25T12:11:20.806Z,13.48
2022-12-25T12:14:24.547Z,13.70
2022-12-25T12:17:28.445Z,13.81
2022-12-25T12:20:32.559Z,13.90
2022-12-25T12:23:36.523Z,13.57
2022-12-25T12:26:40.474Z,13.55
2022-12-25T12:29:44.249Z,13.44
2022-12-25T12:32:48.305Z,13.74
2022-12-25T12:35:52.229Z,13.53
2022-12-25T12:38:57.304Z,13.24
2022-12-25T12:42:01.188Z,13.48
2022-12-25T12:45:05.156Z,13.25
2022-12-25T12:48:09.067Z,13.41
2022-12-25T12:51:13.224Z,13.72
2022-12-25T12:54:17.390Z,13.59
2022-12-25T12:57:21.319Z,13.71
2022-12-25T13:00:25.581Z,13.56
2022-12-25T13:03:29.678Z,13.67
2022-12-25T13:06:33.733Z,13.56
2022-12-25T13:09:37.835Z,13.07
2022-12-25T13:12:41.741Z,13.30
2022-12-25T13:15:45.953Z,13.17
2022-12-25T13:18:49.998Z,13.55
2022-12-25T13:21:54.152Z,13.56
2022-12-25T13:24:58.011Z,13.79
2022-12-25T13:28:02.043Z,13.55
2022-12-25T13:31:06.230Z,13.14
2022-12-25T13:34:10.525Z,13.56
2022-12-25T13:37:14.605Z,13.74
2022-12-25T13:40:18.531Z,13.76
2022-12-25T13:43:22.588Z,13.74
2022-12-25T13:46:26.876Z,13.35
2022-12-25T13:49:30.859Z,13.58
2022-12-25T13:52:34.901Z,13.61
2022-12-25T13:55:38.754Z,13.54
2022-12-25T13:58:42.815Z,13.58
2022-12-25T14:01:47.091Z,13.41
2022-12-25T14:04:50.907Z,12.81
2022-12-25T14:07:54.844Z,12.61
2022-12-25T14:10:58.842Z,12.38
2022-12-25T14:14:02.825Z,13.07
2022-12-25T14:17:07.002Z,13.20
2022-12-25T14:20:10.853Z,13.30
2022-12-25T14:23:14.774Z,13.39
2022-12-25T14:26:18.877Z,13.42
2022-12-25T14:29:28.175Z,13.01
2022-12-25T14:32:32.512Z,13.32
2022-12-25T14:35:36.625Z,13.27
2022-12-25T14:38:40.259Z,13.33
2022-12-25T14:41:44.343Z,13.31
2022-12-25T14:44:48.274Z,13.37
2022-12-25T14:47:52.417Z,13.42
2022-12-25T14:50:56.330Z,13.37
2022-12-25T14:54:00.189Z,13.20
2022-12-25T14:57:04.088Z,13.16
2022-12-25T15:00:08.329Z,13.29
2022-12-25T15:03:12.434Z,13.28
2022-12-25T15:06:16.275Z,13.26
2022-12-25T15:09:20.107Z,13.35
2022-12-25T15:12:24.012Z,13.40
2022-12-25T15:15:28.246Z,13.06
2022-12-25T15:18:32.527Z,12.74
2022-12-25T15:21:36.183Z,12.62
2022-12-25T15:24:40.207Z,12.36
2022-12-25T15:27:44.309Z,12.69
2022-12-25T15:30:48.264Z,12.86
2022-12-25T15:33:51.831Z,12.99
2022-12-25T15:36:55.858Z,12.95
2022-12-25T15:40:00.155Z,12.86
2022-12-25T15:43:11.380Z,12.76
2022-12-25T15:46:24.982Z,12.67
2022-12-25T15:49:28.862Z,12.46
2022-12-25T15:52:32.812Z,12.08
2022-12-25T15:55:37.057Z,12.41
2022-12-25T15:58:41.104Z,11.92
2022-12-25T16:01:45.155Z,11.65
2022-12-25T16:04:49.200Z,11.42
2022-12-25T16:07:53.257Z,11.49
2022-12-25T16:10:57.321Z,11.50
2022-12-25T16:14:01.268Z,11.74
2022-12-25T16:17:05.370Z,11.79
2022-12-25T16:20:09.013Z,11.31
2022-12-25T16:23:13.081Z,11.42
2022-12-25T16:26:16.996Z,11.80
2022-12-25T16:29:21.316Z,11.20
2022-12-25T16:32:25.401Z,11.84
2022-12-25T16:35:28.942Z,11.41
2022-12-25T16:38:32.998Z,11.40
2022-12-25T16:41:37.106Z,11.56
2022-12-25T16:44:41.104Z,10.92
2022-12-25T16:47:45.176Z,11.28
2022-12-25T16:50:49.737Z,11.27
2022-12-25T16:53:54.083Z,10.65
2022-12-25T16:56:57.773Z,10.71
2022-12-25T17:00:01.809Z,11.19
2022-12-25T17:03:05.768Z,11.03
2022-12-25T17:06:09.942Z,10.97
2022-12-25T17:09:13.952Z,11.13
2022-12-25T17:12:17.701Z,11.15
2022-12-25T17:15:21.677Z,11.01
2022-12-25T17:18:25.974Z,11.15
2022-12-25T17:21:32.815Z,11.02
2022-12-25T17:24:36.918Z,10.87
2022-12-25T17:27:40.845Z,10.92
2022-12-25T17:30:45.078Z,11.22
2022-12-25T17:33:49.049Z,11.18
2022-12-25T17:36:53.320Z,11.11
2022-12-25T17:39:57.769Z,10.62
2022-12-25T17:43:01.531Z,10.80
2022-12-25T17:46:05.620Z,10.77
2022-12-25T17:49:11.337Z,10.96
2022-12-25T17:52:15.611Z,10.93
2022-12-25T17:55:19.837Z,10.92
2022-12-25T17:58:23.510Z,11.16
2022-12-25T18:01:27.684Z,10.48
2022-12-25T18:04:31.738Z,10.23
2022-12-25T18:07:35.837Z,10.20
2022-12-25T18:10:39.923Z,10.21
2022-12-25T18:13:43.992Z,10.58
2022-12-25T18:16:47.920Z,10.57
2022-12-25T18:19:51.968Z,10.40
2022-12-25T18:22:55.740Z,10.43
2022-12-25T18:25:59.633Z,10.67
2022-12-25T18:29:03.626Z,10.19
2022-12-25T18:32:07.881Z,10.21
2022-12-25T18:35:12.027Z,10.28
2022-12-25T18:38:16.287Z,10.15
2022-12-25T18:41:20.193Z,10.27
2022-12-25T18:44:24.269Z,10.04
2022-12-25T18:47:28.449Z,10.11
2022-12-25T18:50:32.627Z,10.13
2022-12-25T18:53:36.368Z,10.29
2022-12-25T18:56:40.443Z,10.64
2022-12-25T18:59:44.667Z,10.58
2022-12-25T19:02:48.902Z,10.61
2022-12-25T19:05:52.911Z,10.58
2022-12-25T19:08:57.048Z,10.65
2022-12-25T19:12:01.130Z,9.76
2022-12-25T19:15:05.259Z,9.67
2022-12-25T19:18:09.183Z,10.10
2022-12-25T19:21:13.082Z,10.01
2022-12-25T19:24:17.143Z,9.45
2022-12-25T19:27:21.277Z,9.47
2022-12-25T19:30:25.366Z,9.95
2022-12-25T19:33:29.221Z,10.27
2022-12-25T19:36:33.211Z,9.98
2022-12-25T19:39:37.122Z,10.05
2022-12-25T19:42:41.061Z,10.29
2022-12-25T19:45:46.576Z,10.13
2022-12-25T19:48:50.710Z,10.03
2022-12-25T19:51:54.676Z,10.03
2022-12-25T19:54:58.613Z,10.23
2022-12-25T19:58:02.731Z,10.02
2022-12-25T20:01:06.842Z,9.75
2022-12-25T20:04:10.832Z,10.18
2022-12-25T20:07:14.885Z,9.96
2022-12-25T20:10:18.683Z,9.89
2022-12-25T20:13:23.063Z,10.00
2022-12-25T20:16:27.376Z,10.14
2022-12-25T20:19:31.284Z,9.95
2022-12-25T20:22:35.141Z,10.03
2022-12-25T20:25:39.446Z,9.54
2022-12-25T20:28:43.478Z,9.22
2022-12-25T20:31:47.776Z,9.38
2022-12-25T20:34:51.570Z,9.88
2022-12-25T20:37:55.211Z,9.85
2022-12-25T20:41:25.901Z,10.01
2022-12-25T20:44:23.515Z,9.99
2022-12-25T20:47:27.650Z,9.94
2022-12-25T20:50:31.667Z,9.94
2022-12-25T20:53:35.667Z,10.09
2022-12-25T20:56:39.734Z,10.07
2022-12-25T20:59:43.774Z,10.18
2022-12-25T21:02:47.959Z,10.23
2022-12-25T21:05:51.741Z,9.89
2022-12-25T21:08:55.841Z,9.72
2022-12-25T21:11:59.846Z,9.78
2022-12-25T21:15:07.820Z,9.91
2022-12-25T21:18:15.233Z,9.72
2022-12-25T21:21:19.346Z,9.54
2022-12-25T21:24:23.366Z,9.97
2022-12-25T21:27:27.284Z,9.95
2022-12-25T21:30:31.410Z,9.85
2022-12-25T21:33:35.452Z,9.36
2022-12-25T21:36:39.470Z,9.88
2022-12-25T21:39:43.197Z,9.89
2022-12-25T21:42:47.360Z,10.07
2022-12-25T21:45:51.752Z,9.97
2022-12-25T21:48:55.777Z,9.61
2022-12-25T21:51:59.797Z,9.91
2022-12-25T21:55:03.826Z,9.90
2022-12-25T21:58:10.949Z,9.82
2022-12-25T22:01:15.081Z,10.12
2022-12-25T22:04:19.362Z,9.92
2022-12-25T22:07:23.296Z,9.71
2022-12-25T22:10:27.363Z,9.72
2022-12-25T22:13:31.497Z,9.52
2022-12-25T22:16:35.552Z,9.73
2022-12-25T22:19:39.738Z,9.88
2022-12-25T22:22:43.749Z,10.14
2022-12-25T22:25:47.372Z,10.01
2022-12-25T22:28:51.381Z,9.83
2022-12-25T22:31:55.329Z,9.18
2022-12-25T22:34:59.296Z,9.57
2022-12-25T22:38:03.707Z,10.00
2022-12-25T22:41:07.725Z,9.71
2022-12-25T22:44:18.900Z,9.56
2022-12-25T22:47:22.881Z,9.77
2022-12-25T22:50:27.124Z,9.77
2022-12-25T22:53:31.393Z,9.62
2022-12-25T22:56:35.593Z,9.68
2022-12-25T22:59:39.357Z,9.64
2022-12-25T23:02:43.376Z,9.83
2022-12-25T23:05:47.823Z,9.70
2022-12-25T23:08:51.864Z,9.71
2022-12-25T23:11:56.033Z,9.92
2022-12-25T23:15:00.011Z,10.08
2022-12-25T23:18:04.007Z,9.63
2022-12-25T23:21:08.130Z,9.80
2022-12-25T23:24:12.159Z,9.79
2022-12-25T23:27:16.303Z,10.00
2022-12-25T23:30:20.323Z,9.78
2022-12-25T23:33:24.459Z,9.65
2022-12-25T23:36:28.668Z,9.53
2022-12-25T23:39:32.813Z,9.63
2022-12-25T23:42:36.873Z,9.69
2022-12-25T23:45:40.605Z,9.61
2022-12-25T23:48:44.909Z,9.67
2022-12-25T23:51:48.920Z,9.45
2022-12-25T23:54:52.713Z,9.41
2022-12-25T23:57:56.867Z,9.16
